createdAt,value
2022-09-09T00:00:11.326Z,79.52
2022-09-09T00:05:43.161Z,79.24
2022-09-09T00:13:35.179Z,80.04
2022-09-09T00:19:06.520Z,79.73
2022-09-09T00:24:37.934Z,78.02
2022-09-09T00:30:09.778Z,76.52
2022-09-09T00:41:10.934Z,77.96
2022-09-09T00:46:42.872Z,78.26
2022-09-09T00:52:14.494Z,80.93
2022-09-09T00:57:46.755Z,81.18
2022-09-09T01:03:18.602Z,81.41
2022-09-09T01:08:50.284Z,81.57
2022-09-09T01:16:41.941Z,81.16
2022-09-09T01:22:14.226Z,82.34
2022-09-09T01:24:37.283Z,82.03
2022-09-09T01:30:08.692Z,82.53
2022-09-09T01:35:40.359Z,82.08
2022-09-09T01:46:43.742Z,81.90
2022-09-09T01:52:15.776Z,82.01
2022-09-09T01:57:47.708Z,82.08
2022-09-09T02:03:19.576Z,82.02
2022-09-09T02:08:51.205Z,81.94
2022-09-09T02:14:22.605Z,82.38
2022-09-09T02:19:54.510Z,82.68
2022-09-09T02:25:26.142Z,82.63
2022-09-09T02:30:57.890Z,82.81
2022-09-09T02:36:29.009Z,82.95
2022-09-09T02:42:00.691Z,83.66
2022-09-09T02:47:32.360Z,82.44
2022-09-09T02:53:04.059Z,82.50
2022-09-09T02:58:36.388Z,82.59
2022-09-09T03:04:07.642Z,82.57
2022-09-09T03:09:39.326Z,82.74
2022-09-09T03:15:11.310Z,82.14
2022-09-09T03:20:42.990Z,78.76
2022-09-09T03:26:14.723Z,81.84
2022-09-09T03:31:46.556Z,83.03
2022-09-09T03:37:18.023Z,79.39
2022-09-09T03:42:49.539Z,79.06
2022-09-09T03:48:21.384Z,80.63
2022-09-09T03:53:53.158Z,81.36
2022-09-09T03:59:25.261Z,80.19
2022-09-09T04:04:56.715Z,82.10
2022-09-09T04:10:28.553Z,81.50
2022-09-09T04:16:00.252Z,82.10
2022-09-09T04:21:32.065Z,82.00
2022-09-09T04:23:55.622Z,81.24
2022-09-09T04:29:27.074Z,81.84
2022-09-09T04:34:58.899Z,81.61
2022-09-09T04:40:30.641Z,81.89
2022-09-09T04:46:02.492Z,81.72
2022-09-09T04:51:33.746Z,81.78
2022-09-09T04:57:05.817Z,81.64
2022-09-09T05:02:37.733Z,81.27
2022-09-09T05:08:09.529Z,82.62
2022-09-09T05:13:41.685Z,82.04
2022-09-09T05:19:13.061Z,79.63
2022-09-09T05:24:44.924Z,81.47
2022-09-09T05:30:16.964Z,81.05
2022-09-09T05:35:48.581Z,81.87
2022-09-09T05:41:20.351Z,81.96
2022-09-09T05:46:51.963Z,81.80
2022-09-09T05:52:23.875Z,81.08
2022-09-09T05:57:55.658Z,80.07
2022-09-09T06:03:27.333Z,79.89
2022-09-09T06:08:58.616Z,79.54
2022-09-09T06:14:29.973Z,79.57
2022-09-09T06:20:01.766Z,79.09
2022-09-09T06:25:33.639Z,78.83
2022-09-09T06:36:37.112Z,78.80
2022-09-09T06:42:08.946Z,78.90
2022-09-09T06:47:40.485Z,78.97
2022-09-09T06:53:11.767Z,78.66
2022-09-09T06:58:43.041Z,78.55
2022-09-09T07:04:14.711Z,77.20
2022-09-09T07:09:46.205Z,78.60
2022-09-09T07:20:49.357Z,82.92
2022-09-09T07:26:20.741Z,86.14
2022-09-09T07:31:52.560Z,83.10
2022-09-09T07:37:23.993Z,84.33
2022-09-09T07:42:55.967Z,83.35
2022-09-09T07:48:27.536Z,84.46
2022-09-09T07:53:59.602Z,84.78
2022-09-09T08:05:03.337Z,84.50
2022-09-09T08:10:34.899Z,83.79
2022-09-09T08:16:06.582Z,82.92
2022-09-09T08:21:38.441Z,81.70
2022-09-09T08:27:10.123Z,82.18
2022-09-09T08:32:44.865Z,84.87
2022-09-09T08:38:13.897Z,83.81
2022-09-09T08:43:45.533Z,83.44
2022-09-09T08:49:17.292Z,83.60
2022-09-09T08:54:52.395Z,83.94
2022-09-09T09:00:20.611Z,83.36
2022-09-09T09:05:52.217Z,81.71
2022-09-09T09:11:24.024Z,81.74
2022-09-09T09:16:56.059Z,81.15
2022-09-09T09:22:27.537Z,80.38
2022-09-09T09:27:58.988Z,78.33
2022-09-09T09:44:33.911Z,75.03
2022-09-09T09:50:05.605Z,74.53
2022-09-09T09:55:36.963Z,74.72
2022-09-09T10:01:08.964Z,73.56
2022-09-09T10:06:40.673Z,73.14
2022-09-09T10:12:12.607Z,72.88
2022-09-09T10:17:44.343Z,72.93
2022-09-09T10:23:16.042Z,73.58
2022-09-09T10:28:47.688Z,71.74
2022-09-09T10:34:19.408Z,71.24
2022-09-09T10:39:51.391Z,71.81
2022-09-09T10:45:23.228Z,71.27
2022-09-09T10:51:04.726Z,70.08
2022-09-09T10:56:26.847Z,70.10
2022-09-09T11:01:58.419Z,69.69
2022-09-09T11:07:29.716Z,70.16
2022-09-09T11:13:01.278Z,68.92
2022-09-09T11:18:32.974Z,68.69
2022-09-09T11:24:04.798Z,66.67
2022-09-09T11:29:36.635Z,64.89
2022-09-09T11:35:08.227Z,63.35
2022-09-09T11:40:39.787Z,63.85
2022-09-09T11:46:11.638Z,60.84
2022-09-09T11:51:43.359Z,61.50
2022-09-09T11:57:15.194Z,61.49
2022-09-09T12:02:46.905Z,61.24
2022-09-09T12:08:18.670Z,59.71
2022-09-09T12:13:50.244Z,58.81
2022-09-09T12:19:23.371Z,60.37
2022-09-09T12:24:53.715Z,60.60
2022-09-09T12:30:25.314Z,60.56
2022-09-09T12:35:57.147Z,60.56
2022-09-09T12:41:28.995Z,57.47
2022-09-09T12:52:30.027Z,56.88
2022-09-09T12:58:02.103Z,56.73
2022-09-09T13:03:33.745Z,56.92
2022-09-09T13:09:05.575Z,57.03
2022-09-09T13:14:37.235Z,56.98
2022-09-09T13:20:08.878Z,56.28
2022-09-09T13:25:43.888Z,57.59
2022-09-09T13:31:14.010Z,56.15
2022-09-09T13:36:46.090Z,57.36
2022-09-09T13:42:18.125Z,56.84
2022-09-09T13:53:21.635Z,57.43
2022-09-09T13:58:53.355Z,55.94
2022-09-09T14:04:25.214Z,57.97
2022-09-09T14:09:56.911Z,57.56
2022-09-09T14:15:28.857Z,57.49
2022-09-09T14:21:01.008Z,58.20
2022-09-09T14:26:33.081Z,60.92
2022-09-09T14:32:07.374Z,60.71
2022-09-09T14:37:36.877Z,61.59
2022-09-09T14:43:08.818Z,61.56
2022-09-09T14:48:41.012Z,62.08
2022-09-09T14:54:12.487Z,61.92
2022-09-09T14:59:44.051Z,61.44
2022-09-09T15:02:07.272Z,61.16
2022-09-09T15:07:39.005Z,61.88
2022-09-09T15:13:10.474Z,62.15
2022-09-09T15:18:42.058Z,60.53
2022-09-09T15:24:13.431Z,61.44
2022-09-09T15:29:45.327Z,61.49
2022-09-09T15:35:17.089Z,60.96
2022-09-09T15:40:48.806Z,61.80
2022-09-09T15:46:20.667Z,61.54
2022-09-09T15:51:52.617Z,61.48
2022-09-09T15:57:24.256Z,61.89
2022-09-09T16:02:56.022Z,61.93
2022-09-09T16:10:49.667Z,62.81
2022-09-09T16:16:21.540Z,63.05
2022-09-09T16:21:53.495Z,62.79
2022-09-09T16:27:25.206Z,61.73
2022-09-09T16:32:56.971Z,61.37
2022-09-09T16:38:28.752Z,61.07
2022-09-09T16:44:00.783Z,60.64
2022-09-09T16:49:32.244Z,59.92
2022-09-09T16:55:03.983Z,61.92
2022-09-09T17:00:35.258Z,61.80
2022-09-09T17:06:06.496Z,62.60
2022-09-09T17:11:37.837Z,63.06
2022-09-09T17:22:38.754Z,64.80
2022-09-09T17:28:10.421Z,64.85
2022-09-09T17:33:41.957Z,65.51
2022-09-09T17:39:13.386Z,66.45
2022-09-09T17:44:44.824Z,66.02
2022-09-09T17:50:16.577Z,66.81
2022-09-09T17:55:52.505Z,68.68
2022-09-09T18:01:19.624Z,69.18
2022-09-09T18:06:50.936Z,69.13
2022-09-09T18:12:22.031Z,68.87
2022-09-09T18:17:53.475Z,69.88
2022-09-09T18:23:25.311Z,70.68
2022-09-09T18:28:57.040Z,70.99
2022-09-09T18:34:29.038Z,70.66
2022-09-09T18:40:00.476Z,70.18
2022-09-09T18:45:32.029Z,70.15
2022-09-09T18:51:03.952Z,71.25
2022-09-09T18:56:35.872Z,72.25
2022-09-09T19:02:07.586Z,71.06
2022-09-09T19:07:39.235Z,71.02
2022-09-09T19:13:10.940Z,71.49
2022-09-09T19:18:42.752Z,71.75
2022-09-09T19:24:14.626Z,70.96
2022-09-09T19:29:46.157Z,71.53
2022-09-09T19:35:17.406Z,73.30
2022-09-09T19:46:20.734Z,76.61
2022-09-09T19:51:52.330Z,76.25
2022-09-09T19:57:23.819Z,77.90
2022-09-09T20:03:17.647Z,80.95
2022-09-09T20:08:27.039Z,81.50
2022-09-09T20:13:58.652Z,82.23
2022-09-09T20:19:30.012Z,82.03
2022-09-09T20:25:01.161Z,82.71
2022-09-09T20:30:32.537Z,82.50
2022-09-09T20:36:04.069Z,82.08
2022-09-09T20:41:35.654Z,82.35
2022-09-09T20:47:06.929Z,79.94
2022-09-09T20:58:07.667Z,82.16
2022-09-09T21:03:39.289Z,82.26
2022-09-09T21:09:10.695Z,82.16
2022-09-09T21:14:42.353Z,83.21
2022-09-09T21:17:06.404Z,82.86
2022-09-09T21:22:37.681Z,83.45
2022-09-09T21:28:08.993Z,83.28
2022-09-09T21:33:40.432Z,83.43
2022-09-09T21:39:11.665Z,83.79
2022-09-09T21:44:43.376Z,83.57
2022-09-09T21:52:27.699Z,83.75
2022-09-09T21:57:59.235Z,83.00
2022-09-09T22:03:30.405Z,82.46
2022-09-09T22:09:01.659Z,83.40
2022-09-09T22:14:33.022Z,83.93
2022-09-09T22:20:04.487Z,84.05
2022-09-09T22:22:28.165Z,83.89
2022-09-09T22:27:59.536Z,84.50
2022-09-09T22:33:30.913Z,83.83
2022-09-09T22:39:02.092Z,84.57
2022-09-09T22:44:33.532Z,84.03
2022-09-09T22:50:05.357Z,84.29
2022-09-09T22:55:36.802Z,85.16
2022-09-09T23:01:08.404Z,84.76
2022-09-09T23:06:39.636Z,85.37
2022-09-09T23:12:11.006Z,85.44
2022-09-09T23:17:42.521Z,85.27
2022-09-09T23:23:14.253Z,85.27
2022-09-09T23:28:45.783Z,84.85
2022-09-09T23:34:17.229Z,84.32
2022-09-09T23:39:48.669Z,84.83
2022-09-09T23:45:20.651Z,84.13
2022-09-09T23:50:52.057Z,84.55
2022-09-09T23:56:23.481Z,84.89
